createdAt,value
2024-04-16T00:01:43.372Z,95159.44
2024-04-16T00:04:11.449Z,95167.53
2024-04-16T00:06:38.480Z,95155.63
2024-04-16T00:09:05.794Z,95146.94
2024-04-16T00:11:32.902Z,95144.50
2024-04-16T00:13:59.988Z,95150.19
2024-04-16T00:16:27.073Z,95145.56
2024-04-16T00:18:55.715Z,95148.81
2024-04-16T00:21:22.772Z,95137.16
2024-04-16T00:23:49.986Z,95143.13
2024-04-16T00:26:17.092Z,95125.22
2024-04-16T00:28:44.218Z,95126.88
2024-04-16T00:31:11.298Z,95122.53
2024-04-16T00:33:38.432Z,95113.59
2024-04-16T00:36:06.066Z,95111.19
2024-04-16T00:38:33.076Z,95103.56
2024-04-16T00:41:00.109Z,95100.34
2024-04-16T00:43:27.318Z,95069.44
2024-04-16T00:45:55.485Z,95115.97
2024-04-16T00:48:26.207Z,95095.44
2024-04-16T00:50:55.581Z,95092.72
2024-04-16T00:53:23.064Z,95103.84
2024-04-16T00:55:50.300Z,95090.81
2024-04-16T00:58:18.164Z,95084.59
2024-04-16T01:03:36.941Z,95068.00
2024-04-16T01:06:04.444Z,95054.47
2024-04-16T01:08:31.561Z,95075.34
2024-04-16T01:10:58.715Z,95055.84
2024-04-16T01:13:25.973Z,95051.00
2024-04-16T01:15:53.085Z,95063.44
2024-04-16T01:18:20.188Z,95055.34
2024-04-16T01:20:47.226Z,95052.09
2024-04-16T01:23:14.353Z,95054.53
2024-04-16T01:25:44.106Z,95056.72
2024-04-16T01:28:11.157Z,95072.97
2024-04-16T01:30:38.510Z,95072.72
2024-04-16T01:33:05.855Z,95077.59
2024-04-16T01:35:32.995Z,95059.69
2024-04-16T01:38:00.064Z,95081.34
2024-04-16T01:40:27.784Z,95079.19
2024-04-16T01:42:54.878Z,95091.06
2024-04-16T01:45:21.897Z,95092.97
2024-04-16T01:47:49.170Z,95111.34
2024-04-16T01:50:16.439Z,95141.59
2024-04-16T01:52:43.579Z,95152.66
2024-04-16T01:55:10.629Z,95165.84
2024-04-16T01:57:38.053Z,95182.13
2024-04-16T02:00:05.586Z,95170.19
2024-04-16T02:02:32.957Z,95167.97
2024-04-16T02:05:00.038Z,95182.03
2024-04-16T02:07:28.209Z,95181.66
2024-04-16T02:09:55.390Z,95183.47
2024-04-16T02:12:22.387Z,95183.63
2024-04-16T02:14:50.780Z,95187.38
2024-04-16T02:17:17.875Z,95188.78
2024-04-16T02:19:45.004Z,95189.28
2024-04-16T02:22:12.882Z,95184.47
2024-04-16T02:24:40.090Z,95203.41
2024-04-16T02:27:07.171Z,95203.16
2024-04-16T02:29:34.153Z,95194.66
2024-04-16T02:32:01.431Z,95195.13
2024-04-16T02:34:28.674Z,95194.97
2024-04-16T02:36:55.987Z,95199.31
2024-04-16T02:39:23.287Z,95211.00
2024-04-16T02:41:50.282Z,95202.94
2024-04-16T02:44:17.365Z,95209.44
2024-04-16T02:46:44.454Z,95221.97
2024-04-16T02:49:11.521Z,95221.97
2024-04-16T02:51:38.867Z,95214.94
2024-04-16T02:54:05.935Z,95218.66
2024-04-16T02:56:33.338Z,95221.72
2024-04-16T02:59:00.341Z,95235.38
2024-04-16T03:01:27.565Z,95225.81
2024-04-16T03:03:58.563Z,95225.09
2024-04-16T03:06:26.328Z,95241.44
2024-04-16T03:08:53.418Z,95241.78
2024-04-16T03:11:20.484Z,95244.16
2024-04-16T03:13:47.650Z,95254.66
2024-04-16T03:16:14.693Z,95252.16
2024-04-16T03:18:41.858Z,95258.34
2024-04-16T03:21:08.917Z,95263.00
2024-04-16T03:23:36.037Z,95258.34
2024-04-16T03:26:04.778Z,95267.75
2024-04-16T03:28:32.135Z,95263.53
2024-04-16T03:30:59.145Z,95259.09
2024-04-16T03:33:26.227Z,95259.84
2024-04-16T03:35:55.428Z,95269.38
2024-04-16T03:38:23.170Z,95268.41
2024-04-16T03:40:58.709Z,95271.78
2024-04-16T03:43:27.645Z,95276.34
2024-04-16T03:45:58.365Z,95276.09
2024-04-16T03:48:26.567Z,95284.75
2024-04-16T03:51:00.317Z,95280.91
2024-04-16T03:53:27.384Z,95274.47
2024-04-16T03:56:00.000Z,95285.22
2024-04-16T03:58:37.266Z,95297.19
2024-04-16T04:04:05.161Z,95297.44
2024-04-16T04:06:38.846Z,95294.91
2024-04-16T04:09:06.132Z,95295.34
2024-04-16T04:11:40.094Z,95290.38
2024-04-16T04:14:07.275Z,95296.34
2024-04-16T04:16:34.738Z,95299.03
2024-04-16T04:19:02.053Z,95301.47
2024-04-16T04:21:29.411Z,95294.09
2024-04-16T04:23:56.546Z,95297.44
2024-04-16T04:26:25.065Z,95302.50
2024-04-16T04:28:52.408Z,95302.81
2024-04-16T04:31:20.666Z,95304.28
2024-04-16T04:33:48.236Z,95309.19
2024-04-16T04:36:16.030Z,95298.47
2024-04-16T04:38:43.135Z,95297.81
2024-04-16T04:41:13.517Z,95306.81
2024-04-16T04:43:40.591Z,95304.13
2024-04-16T04:46:07.835Z,95300.06
2024-04-16T04:48:35.011Z,95295.34
2024-04-16T04:51:02.120Z,95309.00
2024-04-16T04:53:29.391Z,95306.69
2024-04-16T04:55:56.804Z,95308.31
2024-04-16T04:58:24.040Z,95318.59
2024-04-16T05:00:51.095Z,95314.66
2024-04-16T05:03:18.306Z,95310.91
2024-04-16T05:05:47.553Z,95322.19
2024-04-16T05:08:14.837Z,95318.25
2024-04-16T05:10:42.151Z,95328.44
2024-04-16T05:13:09.535Z,95338.41
2024-04-16T05:15:36.756Z,95336.03
2024-04-16T05:18:04.159Z,95326.84
2024-04-16T05:20:33.280Z,95333.91
2024-04-16T05:23:00.673Z,95340.50
2024-04-16T05:25:28.075Z,95344.84
2024-04-16T05:27:55.402Z,95348.47
2024-04-16T05:30:22.529Z,95348.63
2024-04-16T05:32:52.403Z,95356.25
2024-04-16T05:35:19.859Z,95356.78
2024-04-16T05:37:47.875Z,95346.75
2024-04-16T05:40:16.687Z,95343.84
2024-04-16T05:42:45.842Z,95358.00
2024-04-16T05:45:13.357Z,95355.91
2024-04-16T05:47:40.622Z,95356.28
2024-04-16T05:50:08.131Z,95353.25
2024-04-16T05:52:35.271Z,95340.97
2024-04-16T05:55:03.111Z,95346.28
2024-04-16T05:57:30.770Z,95338.31
2024-04-16T05:59:59.722Z,95341.72
2024-04-16T06:02:28.415Z,95343.28
2024-04-16T06:04:55.670Z,95336.81
2024-04-16T06:07:23.019Z,95337.00
2024-04-16T06:09:50.043Z,95337.06
2024-04-16T06:12:17.821Z,95345.94
2024-04-16T06:14:44.997Z,95337.31
2024-04-16T06:17:14.640Z,95336.59
2024-04-16T06:19:44.883Z,95337.25
2024-04-16T06:22:18.370Z,95339.63
2024-04-16T06:24:45.799Z,95335.63
2024-04-16T06:27:13.084Z,95337.09
2024-04-16T06:29:40.108Z,95346.28
2024-04-16T06:32:07.545Z,95335.25
2024-04-16T06:34:34.697Z,95324.50
2024-04-16T06:37:01.892Z,95320.97
2024-04-16T06:39:29.031Z,95317.69
2024-04-16T06:42:02.402Z,95306.47
2024-04-16T06:44:29.791Z,95300.75
2024-04-16T06:46:57.036Z,95282.72
2024-04-16T06:49:24.390Z,95258.72
2024-04-16T06:51:51.579Z,95257.44
2024-04-16T06:54:20.009Z,95272.25
2024-04-16T06:56:47.177Z,95266.44
2024-04-16T06:59:16.296Z,95278.16
2024-04-16T07:03:43.893Z,95281.66
2024-04-16T07:06:11.064Z,95283.69
2024-04-16T07:08:38.090Z,95299.56
2024-04-16T07:11:08.757Z,95297.69
2024-04-16T07:13:36.282Z,95302.31
2024-04-16T07:16:03.944Z,95303.13
2024-04-16T07:18:31.032Z,95302.31
2024-04-16T07:20:58.120Z,95300.66
2024-04-16T07:23:25.269Z,95294.69
2024-04-16T07:25:52.443Z,95294.75
2024-04-16T07:28:19.748Z,95296.47
2024-04-16T07:30:54.637Z,95299.66
2024-04-16T07:33:30.246Z,95300.97
2024-04-16T07:35:57.593Z,95285.09
2024-04-16T07:38:24.667Z,95290.50
2024-04-16T07:40:55.602Z,95296.88
2024-04-16T07:43:25.273Z,95286.56
2024-04-16T07:45:52.772Z,95306.56
2024-04-16T07:48:20.150Z,95305.56
2024-04-16T07:50:50.644Z,95306.22
2024-04-16T07:53:18.180Z,95309.84
2024-04-16T07:55:45.406Z,95310.75
2024-04-16T07:58:13.070Z,95305.03
2024-04-16T08:00:41.397Z,95318.47
2024-04-16T08:03:11.672Z,95323.56
2024-04-16T08:05:38.934Z,95326.50
2024-04-16T08:08:11.204Z,95327.50
2024-04-16T08:10:41.800Z,95333.63
2024-04-16T08:13:09.262Z,95337.22
2024-04-16T08:15:36.512Z,95326.94
2024-04-16T08:18:04.784Z,95325.91
2024-04-16T08:20:32.868Z,95326.59
2024-04-16T08:22:59.936Z,95316.56
2024-04-16T08:25:27.122Z,95310.88
2024-04-16T08:27:54.377Z,95297.41
2024-04-16T08:30:21.570Z,95277.19
2024-04-16T08:32:48.765Z,95272.31
2024-04-16T08:35:29.721Z,95266.41
2024-04-16T08:37:57.137Z,95271.47
2024-04-16T08:40:25.298Z,95281.81
2024-04-16T08:42:53.226Z,95293.81
2024-04-16T08:45:21.378Z,95297.59
2024-04-16T08:47:49.007Z,95299.53
2024-04-16T08:50:16.230Z,95293.97
2024-04-16T08:52:43.558Z,95282.22
2024-04-16T08:55:10.670Z,95277.56
2024-04-16T08:57:37.951Z,95292.22
2024-04-16T09:00:05.490Z,95290.28
2024-04-16T09:02:35.377Z,95295.03
2024-04-16T09:05:04.143Z,95287.13
2024-04-16T09:07:32.166Z,95285.34
2024-04-16T09:09:59.488Z,95281.75
2024-04-16T09:12:26.688Z,95272.84
2024-04-16T09:14:53.967Z,95257.22
2024-04-16T09:17:21.136Z,95261.84
2024-04-16T09:19:48.710Z,95250.63
2024-04-16T09:22:15.908Z,95250.63
2024-04-16T09:24:42.967Z,95251.88
2024-04-16T09:27:10.944Z,95248.91
2024-04-16T09:29:38.247Z,95254.19
2024-04-16T09:32:06.278Z,95266.81
2024-04-16T09:34:33.595Z,95253.91
2024-04-16T09:37:02.037Z,95271.66
2024-04-16T09:39:29.720Z,95247.53
2024-04-16T09:41:56.812Z,95256.97
2024-04-16T09:44:24.287Z,95250.13
2024-04-16T09:46:55.218Z,95249.78
2024-04-16T09:49:26.615Z,95259.25
2024-04-16T09:52:00.748Z,95266.16
2024-04-16T09:54:27.778Z,95273.63
2024-04-16T09:56:54.894Z,95261.63
2024-04-16T09:59:22.255Z,95263.19
2024-04-16T10:03:50.359Z,95261.59
2024-04-16T10:06:17.715Z,95278.44
2024-04-16T10:08:44.921Z,95271.03
2024-04-16T10:11:17.847Z,95279.34
2024-04-16T10:13:53.893Z,95264.53
2024-04-16T10:16:20.929Z,95270.91
2024-04-16T10:18:57.676Z,95274.63
2024-04-16T10:21:28.259Z,95275.41
2024-04-16T10:24:07.673Z,95273.50
2024-04-16T10:26:41.343Z,95274.19
2024-04-16T10:29:15.586Z,95279.97
2024-04-16T10:31:45.475Z,95270.59
2024-04-16T10:34:26.369Z,95277.75
2024-04-16T10:36:54.177Z,95276.66
2024-04-16T10:39:22.394Z,95279.81
2024-04-16T10:41:58.180Z,95273.66
2024-04-16T10:44:25.575Z,95274.28
2024-04-16T10:46:53.788Z,95267.25
2024-04-16T10:49:24.749Z,95288.88
2024-04-16T10:51:52.361Z,95271.19
2024-04-16T10:54:20.014Z,95272.22
2024-04-16T10:56:49.307Z,95268.50
2024-04-16T10:59:17.845Z,95251.66
2024-04-16T11:01:48.449Z,95270.84
2024-04-16T11:04:20.007Z,95269.41
2024-04-16T11:06:47.984Z,95272.59
2024-04-16T11:09:16.159Z,95264.41
2024-04-16T11:11:44.034Z,95268.06
2024-04-16T11:14:11.513Z,95260.69
2024-04-16T11:16:43.426Z,95272.41
2024-04-16T11:19:14.353Z,95265.81
2024-04-16T11:21:42.274Z,95259.88
2024-04-16T11:24:09.574Z,95269.41
2024-04-16T11:26:40.394Z,95263.13
2024-04-16T11:29:07.739Z,95265.63
2024-04-16T11:31:34.816Z,95256.47
2024-04-16T11:34:02.227Z,95255.09
2024-04-16T11:36:29.436Z,95247.84
2024-04-16T11:38:56.726Z,95246.91
2024-04-16T11:41:24.216Z,95243.75
2024-04-16T11:43:51.804Z,95244.50
2024-04-16T11:46:19.135Z,95243.63
2024-04-16T11:48:46.775Z,95238.31
2024-04-16T11:51:13.872Z,95227.41
2024-04-16T11:53:41.840Z,95228.81
2024-04-16T11:56:12.607Z,95238.22
2024-04-16T11:58:44.310Z,95224.09
2024-04-16T12:01:12.218Z,95236.97
2024-04-16T12:03:40.709Z,95222.78
2024-04-16T12:06:08.071Z,95219.56
2024-04-16T12:08:35.255Z,95216.63
2024-04-16T12:11:02.826Z,95219.97
2024-04-16T12:13:30.164Z,95212.84
2024-04-16T12:15:57.227Z,95213.34
2024-04-16T12:18:24.511Z,95209.59
2024-04-16T12:20:51.651Z,95209.63
2024-04-16T12:23:19.052Z,95199.47
2024-04-16T12:25:51.578Z,95206.06
2024-04-16T12:28:20.441Z,95221.94
2024-04-16T12:30:47.575Z,95220.00
2024-04-16T12:33:16.824Z,95220.16
2024-04-16T12:35:45.187Z,95211.13
2024-04-16T12:38:12.783Z,95205.03
2024-04-16T12:40:40.304Z,95205.53
2024-04-16T12:43:07.519Z,95200.91
2024-04-16T12:45:34.697Z,95210.94
2024-04-16T12:48:02.242Z,95204.06
2024-04-16T12:50:29.448Z,95192.44
2024-04-16T12:52:56.529Z,95189.44
2024-04-16T12:55:23.683Z,95193.91
2024-04-16T12:57:51.193Z,95192.88
2024-04-16T13:03:39.629Z,95186.72
2024-04-16T13:06:06.953Z,95195.13
2024-04-16T13:08:33.994Z,95186.38
2024-04-16T13:11:01.180Z,95186.28
2024-04-16T13:13:28.496Z,95180.28
2024-04-16T13:15:57.382Z,95180.72
2024-04-16T13:18:24.428Z,95182.50
2024-04-16T13:20:56.315Z,95162.63
2024-04-16T13:23:23.555Z,95167.69
2024-04-16T13:25:51.004Z,95169.38
2024-04-16T13:28:18.326Z,95167.59
2024-04-16T13:30:54.934Z,95170.69
2024-04-16T13:33:22.216Z,95175.13
2024-04-16T13:35:52.850Z,95165.38
2024-04-16T13:38:21.166Z,95167.13
2024-04-16T13:40:48.609Z,95170.69
2024-04-16T13:43:20.131Z,95159.13
2024-04-16T13:45:50.453Z,95151.88
2024-04-16T13:48:17.618Z,95146.25
2024-04-16T13:50:44.998Z,95143.47
2024-04-16T13:53:12.117Z,95132.28
2024-04-16T13:55:39.535Z,95137.19
2024-04-16T13:58:08.137Z,95123.22
2024-04-16T14:00:38.670Z,95111.16
2024-04-16T14:03:06.324Z,95125.72
2024-04-16T14:05:34.042Z,95110.53
2024-04-16T14:08:01.168Z,95112.34
2024-04-16T14:10:28.293Z,95111.59
2024-04-16T14:12:55.733Z,95108.75
2024-04-16T14:15:26.806Z,95110.34
2024-04-16T14:17:54.769Z,95095.59
2024-04-16T14:20:22.447Z,95087.53
2024-04-16T14:22:50.860Z,95090.03
2024-04-16T14:25:18.061Z,95075.56
2024-04-16T14:27:45.156Z,95085.88
2024-04-16T14:30:12.969Z,95074.09
2024-04-16T14:32:40.441Z,95058.50
2024-04-16T14:35:07.908Z,95065.78
2024-04-16T14:37:35.225Z,95066.16
2024-04-16T14:40:02.670Z,95073.78
2024-04-16T14:42:29.771Z,95073.13
2024-04-16T14:44:56.800Z,95068.88
2024-04-16T14:47:24.322Z,95069.94
2024-04-16T14:49:51.502Z,95079.63
2024-04-16T14:52:18.962Z,95076.16
2024-04-16T14:54:46.127Z,95074.09
2024-04-16T14:57:20.030Z,95073.13
2024-04-16T14:59:49.440Z,95068.06
2024-04-16T15:02:17.224Z,95054.56
2024-04-16T15:04:44.250Z,95051.22
2024-04-16T15:07:11.382Z,95052.03
2024-04-16T15:09:39.109Z,95050.06
2024-04-16T15:12:06.726Z,95032.75
2024-04-16T15:14:33.981Z,95027.66
2024-04-16T15:17:01.318Z,95032.66
2024-04-16T15:19:28.756Z,95028.31
2024-04-16T15:21:55.815Z,95032.38
2024-04-16T15:24:23.033Z,95024.84
2024-04-16T15:26:50.278Z,95031.41
2024-04-16T15:29:17.466Z,95033.97
2024-04-16T15:31:44.780Z,95026.28
2024-04-16T15:34:12.357Z,95039.03
2024-04-16T15:36:39.795Z,95038.19
2024-04-16T15:39:06.889Z,95049.75
2024-04-16T15:41:34.394Z,95042.44
2024-04-16T15:44:01.887Z,95053.03
2024-04-16T15:46:29.456Z,95045.50
2024-04-16T15:48:56.943Z,95043.06
2024-04-16T15:51:26.339Z,95041.66
2024-04-16T15:53:53.438Z,95048.16
2024-04-16T15:56:20.737Z,95048.16
2024-04-16T15:58:48.008Z,95040.88
2024-04-16T16:14:10.510Z,95047.22
2024-04-16T16:16:38.080Z,95045.84
2024-04-16T16:19:05.332Z,95047.50
2024-04-16T16:21:34.815Z,95045.66
2024-04-16T16:24:02.060Z,95039.69
2024-04-16T16:26:29.178Z,95036.44
2024-04-16T16:28:56.246Z,95035.59
2024-04-16T16:31:23.894Z,95045.66
2024-04-16T16:33:51.482Z,95038.34
2024-04-16T16:36:18.810Z,95042.94
2024-04-16T16:38:46.158Z,95041.31
2024-04-16T16:41:13.527Z,95033.47
2024-04-16T16:43:40.950Z,95054.34
2024-04-16T16:46:08.158Z,95044.53
2024-04-16T16:48:35.296Z,95048.34
2024-04-16T16:51:02.463Z,95052.41
2024-04-16T16:53:30.006Z,95058.91
2024-04-16T16:56:00.337Z,95049.16
2024-04-16T16:58:27.615Z,95058.63
2024-04-16T17:00:54.940Z,95062.41
2024-04-16T17:03:24.112Z,95066.16
2024-04-16T17:05:51.729Z,95074.00
2024-04-16T17:08:19.225Z,95069.38
2024-04-16T17:10:46.466Z,95060.72
2024-04-16T17:13:14.357Z,95057.44
2024-04-16T17:15:44.376Z,95050.66
2024-04-16T17:18:11.773Z,95051.69
2024-04-16T17:20:39.164Z,95061.09
2024-04-16T17:23:06.191Z,95062.63
2024-04-16T17:25:33.508Z,95055.84
2024-04-16T17:28:00.682Z,95058.34
2024-04-16T17:30:27.709Z,95060.72
2024-04-16T17:32:55.047Z,95062.03
2024-04-16T17:35:22.995Z,95063.38
2024-04-16T17:37:50.265Z,95068.69
2024-04-16T17:40:20.980Z,95063.50
2024-04-16T17:42:48.061Z,95062.94
2024-04-16T17:45:15.206Z,95069.59
2024-04-16T17:47:43.559Z,95069.31
2024-04-16T17:50:12.670Z,95073.09
2024-04-16T17:52:40.446Z,95074.72
2024-04-16T17:55:08.950Z,95082.06
2024-04-16T17:57:36.547Z,95072.31
2024-04-16T18:00:04.333Z,95076.84
2024-04-16T18:02:31.560Z,95085.16
2024-04-16T18:04:58.918Z,95093.84
2024-04-16T18:07:26.287Z,95094.00
2024-04-16T18:09:55.400Z,95101.50
2024-04-16T18:12:24.124Z,95123.56
2024-04-16T18:14:51.456Z,95127.94
2024-04-16T18:17:20.080Z,95142.31
2024-04-16T18:19:49.954Z,95138.75
2024-04-16T18:22:17.296Z,95153.66
2024-04-16T18:24:44.896Z,95166.13
2024-04-16T18:27:12.372Z,95161.78
2024-04-16T18:29:40.144Z,95163.06
2024-04-16T18:32:07.662Z,95159.13
2024-04-16T18:34:35.091Z,95157.19
2024-04-16T18:37:05.314Z,95156.59
2024-04-16T18:39:32.740Z,95153.25
2024-04-16T18:41:59.829Z,95148.75
2024-04-16T18:44:27.086Z,95155.81
2024-04-16T18:46:54.398Z,95162.91
2024-04-16T18:49:21.672Z,95161.13
2024-04-16T18:51:49.034Z,95179.91
2024-04-16T18:54:16.378Z,95186.13
2024-04-16T18:56:43.889Z,95196.34
2024-04-16T18:59:11.076Z,95206.91
2024-04-16T19:03:43.473Z,95205.03
2024-04-16T19:06:15.208Z,95216.03
2024-04-16T19:08:42.408Z,95214.56
2024-04-16T19:11:10.853Z,95228.66
2024-04-16T19:13:40.183Z,95238.59
2024-04-16T19:16:08.800Z,95232.72
2024-04-16T19:18:36.803Z,95238.28
2024-04-16T19:21:04.307Z,95234.47
2024-04-16T19:23:34.650Z,95226.69
2024-04-16T19:26:01.722Z,95235.72
2024-04-16T19:28:29.311Z,95232.06
2024-04-16T19:30:56.860Z,95222.75
2024-04-16T19:33:24.630Z,95216.03
2024-04-16T19:35:53.319Z,95217.47
2024-04-16T19:38:20.498Z,95226.97
2024-04-16T19:40:47.862Z,95225.13
2024-04-16T19:43:15.005Z,95213.00
2024-04-16T19:45:42.091Z,95219.78
2024-04-16T19:48:11.777Z,95211.94
2024-04-16T19:50:42.428Z,95218.63
2024-04-16T19:53:09.534Z,95217.63
2024-04-16T19:55:37.237Z,95210.59
2024-04-16T19:58:04.425Z,95201.81
2024-04-16T20:00:33.443Z,95208.06
2024-04-16T20:03:01.233Z,95214.78
2024-04-16T20:05:29.967Z,95197.88
2024-04-16T20:07:57.332Z,95209.34
2024-04-16T20:10:24.730Z,95196.38
2024-04-16T20:12:51.862Z,95195.56
2024-04-16T20:15:18.923Z,95178.16
2024-04-16T20:17:46.171Z,95178.28
2024-04-16T20:20:13.337Z,95171.81
2024-04-16T20:22:40.411Z,95175.34
2024-04-16T20:25:07.633Z,95178.53
2024-04-16T20:27:34.788Z,95180.31
2024-04-16T20:30:01.762Z,95185.34
2024-04-16T20:32:28.830Z,95185.72
2024-04-16T20:34:55.947Z,95183.72
2024-04-16T20:37:23.116Z,95191.41
2024-04-16T20:39:50.306Z,95192.47
2024-04-16T20:42:17.512Z,95188.72
2024-04-16T20:44:44.666Z,95193.28
2024-04-16T20:47:11.718Z,95189.31
2024-04-16T20:49:39.170Z,95181.94
2024-04-16T20:52:06.419Z,95183.13
2024-04-16T20:54:33.497Z,95179.97
2024-04-16T20:57:00.811Z,95187.00
2024-04-16T20:59:28.153Z,95187.81
2024-04-16T21:01:55.309Z,95182.44
2024-04-16T21:04:22.532Z,95194.44
2024-04-16T21:06:49.881Z,95178.53
2024-04-16T21:09:17.002Z,95173.53
2024-04-16T21:11:43.981Z,95175.56
2024-04-16T21:14:11.285Z,95175.47
2024-04-16T21:16:38.657Z,95180.91
2024-04-16T21:19:05.912Z,95172.97
2024-04-16T21:21:33.083Z,95173.94
2024-04-16T21:24:00.235Z,95175.22
2024-04-16T21:26:27.604Z,95171.53
2024-04-16T21:28:54.800Z,95169.06
2024-04-16T21:31:22.136Z,95164.44
2024-04-16T21:33:49.837Z,95163.63
2024-04-16T21:36:17.702Z,95158.97
2024-04-16T21:38:44.765Z,95160.84
2024-04-16T21:41:14.843Z,95160.50
2024-04-16T21:43:43.733Z,95164.94
2024-04-16T21:46:11.865Z,95163.06
2024-04-16T21:48:39.124Z,95169.84
2024-04-16T21:51:06.450Z,95165.28
2024-04-16T21:53:33.707Z,95168.69
2024-04-16T21:56:01.586Z,95167.63
2024-04-16T21:58:29.040Z,95174.63
2024-04-16T22:03:49.984Z,95174.50
2024-04-16T22:06:17.231Z,95186.88
2024-04-16T22:08:44.591Z,95184.53
2024-04-16T22:11:12.011Z,95185.25
2024-04-16T22:13:39.740Z,95177.78
2024-04-16T22:16:07.280Z,95177.31
2024-04-16T22:18:34.730Z,95176.84
2024-04-16T22:21:03.282Z,95168.19
2024-04-16T22:23:30.647Z,95186.63
2024-04-16T22:26:07.184Z,95175.06
2024-04-16T22:28:35.944Z,95169.50
2024-04-16T22:31:03.039Z,95169.50
2024-04-16T22:33:33.124Z,95164.94
2024-04-16T22:36:00.314Z,95162.00
2024-04-16T22:38:27.460Z,95163.72
2024-04-16T22:40:54.799Z,95161.59
2024-04-16T22:43:21.997Z,95163.84
2024-04-16T22:45:56.513Z,95158.59
2024-04-16T22:48:25.291Z,95144.19
2024-04-16T22:50:54.048Z,95157.84
2024-04-16T22:53:21.242Z,95161.59
2024-04-16T22:55:49.764Z,95168.47
2024-04-16T22:58:17.278Z,95167.06
2024-04-16T23:00:44.525Z,95162.06
2024-04-16T23:03:14.207Z,95157.75
2024-04-16T23:05:42.167Z,95155.88
2024-04-16T23:08:09.377Z,95143.41
2024-04-16T23:10:37.551Z,95149.97
2024-04-16T23:13:05.289Z,95151.72
2024-04-16T23:15:32.659Z,95152.88
2024-04-16T23:18:01.797Z,95146.25
2024-04-16T23:20:29.110Z,95150.22
2024-04-16T23:22:56.427Z,95137.72
2024-04-16T23:25:23.921Z,95139.81
2024-04-16T23:27:50.959Z,95137.13
2024-04-16T23:30:18.050Z,95140.28
2024-04-16T23:32:45.111Z,95141.66
2024-04-16T23:35:12.433Z,95146.34
2024-04-16T23:37:39.662Z,95141.91
2024-04-16T23:40:07.659Z,95137.34
2024-04-16T23:42:34.804Z,95136.75
2024-04-16T23:45:02.030Z,95138.88
2024-04-16T23:47:29.141Z,95139.06
2024-04-16T23:49:56.668Z,95143.28
2024-04-16T23:52:24.338Z,95135.31
2024-04-16T23:54:52.458Z,95129.41
2024-04-16T23:57:19.455Z,95138.50
2024-04-16T23:59:46.461Z,95136.28
